Time;durP1;ratioP1;P1;durP2;ratioP2;P2;SDS_P1;SDS_P2;PMS_P1;PMS_P2;Temp;Humidity;BMP_temperature;BMP_pressure;BME280_temperature;BME280_humidity;BME280_pressure;Samples;Min_cycle;Max_cycle;Signal;HPM_P1;HPM_P2
2021/08/22 10:26:48;;;;;;;17.58;14.85;;;19.40;99.90;;;;;;5896716;23;20020;-79
2021/08/22 10:32:06;;;;;;;15.93;12.90;;;19.40;99.90;;;;;;5335334;23;20049;-80
2021/08/22 10:37:36;;;;;;;13.48;11.93;;;19.10;99.90;;;;;;5833845;23;19934;-80
2021/08/22 10:40:21;;;;;;;12.63;10.50;;;18.90;99.90;;;;;;4906149;29;39243;-80
2021/08/22 14:14:21;;;;;;;1.70;1.38;;;19.70;99.90;;;;;;4958929;23;20146;-81
2021/08/22 15:14:45;;;;;;;3.10;1.10;;;20.20;99.90;;;;;;5589780;23;19926;-81
2021/08/22 15:22:22;;;;;;;0.77;0.70;;;20.00;99.90;;;;;;4919213;28;20084;-80
2021/08/22 15:24:49;;;;;;;3.03;0.98;;;20.00;99.90;;;;;;4943689;29;37954;-80
2021/08/22 15:27:22;;;;;;;1.42;0.63;;;19.90;99.90;;;;;;4929577;29;38699;-80
2021/08/22 15:29:51;;;;;;;2.35;1.00;;;19.90;99.90;;;;;;4931813;28;38251;-80
2021/08/22 15:32:20;;;;;;;1.38;0.75;;;19.90;99.90;;;;;;4906675;29;37040;-80
2021/08/22 15:34:53;;;;;;;1.20;0.70;;;19.90;99.90;;;;;;4925072;28;37671;-79
2021/08/22 15:37:49;;;;;;;1.50;0.75;;;20.00;99.90;;;;;;4894884;29;38338;-80
2021/08/22 15:40:33;;;;;;;1.83;0.73;;;20.10;99.90;;;;;;4927072;29;38875;-80
2021/08/22 15:43:31;;;;;;;1.17;0.90;;;20.20;99.90;;;;;;4933115;28;37407;-80
2021/08/22 15:46:04;;;;;;;3.13;0.60;;;20.50;99.90;;;;;;4935464;28;48736;-81
2021/08/22 15:49:15;;;;;;;0.68;0.68;;;20.70;99.90;;;;;;4938478;29;38344;-81
2021/08/22 15:51:58;;;;;;;2.22;0.55;;;20.70;99.90;;;;;;4910774;28;40127;-80
2021/08/22 15:54:31;;;;;;;2.30;0.75;;;20.50;99.90;;;;;;4924251;28;37941;-81
2021/08/22 15:57:09;;;;;;;1.08;0.75;;;20.40;99.90;;;;;;4916219;28;38282;-81
2021/08/22 16:00:16;;;;;;;2.28;0.90;;;20.40;99.90;;;;;;4957242;28;50066;-81
2021/08/22 16:03:11;;;;;;;0.75;0.70;;;20.40;99.90;;;;;;4891317;28;50429;-80
2021/08/22 16:21:37;;;;;;;3.00;1.63;;;21.00;99.90;;;;;;5476187;23;20054;-81
2021/08/22 16:32:15;;;;;;;1.58;0.95;;;20.50;99.90;;;;;;5914295;23;20361;-76
2021/08/22 17:24:02;;;;;;;6.85;4.10;;;19.50;99.90;;;;;;5783778;23;20052;-80
2021/08/22 18:39:41;;;;;;;18.90;9.25;;;18.80;99.90;;;;;;5661238;23;20042;-80
2021/08/22 18:42:08;;;;;;;14.25;8.65;;;18.80;99.90;;;;;;4923988;29;37663;-81
2021/08/22 18:52:21;;;;;;;16.00;8.27;;;18.80;99.90;;;;;;5113373;23;19937;-79
2021/08/22 18:54:47;;;;;;;15.02;7.90;;;18.90;99.90;;;;;;4941962;28;36812;-80
2021/08/22 18:57:15;;;;;;;18.55;8.18;;;18.80;99.90;;;;;;4928326;29;37946;-79
2021/08/22 18:59:55;;;;;;;18.15;9.00;;;18.80;99.90;;;;;;4932518;29;40057;-80
2021/08/22 19:02:29;;;;;;;13.82;8.63;;;18.80;99.90;;;;;;4937656;28;38671;-81
2021/08/22 19:25:50;;;;;;;18.90;7.63;;;18.80;99.90;;;;;;5870080;23;20299;-79
2021/08/22 19:33:32;;;;;;;14.95;6.10;;;18.80;99.90;;;;;;4936104;28;20058;-81
2021/08/22 19:36:08;;;;;;;15.60;6.57;;;18.70;99.90;;;;;;4944739;28;38078;-81
2021/08/22 19:38:53;;;;;;;15.10;7.30;;;18.70;99.90;;;;;;4944823;28;48726;-81
2021/08/22 19:42:00;;;;;;;20.33;7.95;;;18.70;99.90;;;;;;4917240;28;49945;-81
2021/08/22 19:44:37;;;;;;;13.43;7.47;;;18.60;99.90;;;;;;4935009;28;38665;-82
2021/08/22 19:47:06;;;;;;;16.35;8.00;;;18.50;99.90;;;;;;4940830;28;37987;-79
2021/08/22 19:49:46;;;;;;;16.00;8.40;;;18.50;99.90;;;;;;4930854;28;39643;-81
2021/08/22 19:55:05;;;;;;;15.77;7.50;;;18.40;99.90;;;;;;5552956;23;20047;-79
2021/08/22 19:57:32;;;;;;;15.20;8.32;;;18.40;99.90;;;;;;4988351;28;47205;-80
2021/08/22 20:00:03;;;;;;;11.45;7.47;;;18.40;99.90;;;;;;4998233;28;38275;-79
2021/08/22 20:02:32;;;;;;;15.00;8.13;;;18.40;99.90;;;;;;4978111;28;37590;-80
2021/08/22 20:05:06;;;;;;;12.55;7.53;;;18.40;99.90;;;;;;4971841;28;37609;-79
2021/08/22 20:13:40;;;;;;;11.55;6.53;;;18.50;99.90;;;;;;5076725;23;20033;-79
2021/08/22 20:16:09;;;;;;;16.60;6.22;;;18.50;99.90;;;;;;4933374;28;47546;-79
2021/08/22 20:18:41;;;;;;;18.77;7.57;;;18.50;99.90;;;;;;4905257;28;37687;-80
2021/08/22 20:21:37;;;;;;;15.70;7.32;;;18.50;99.90;;;;;;4911576;29;39192;-80
2021/08/22 20:24:17;;;;;;;16.95;7.47;;;18.60;99.90;;;;;;4900520;29;38616;-80
2021/08/22 20:26:50;;;;;;;17.42;6.68;;;18.50;99.90;;;;;;4937190;29;38836;-80
2021/08/22 20:29:22;;;;;;;19.23;7.28;;;18.50;99.90;;;;;;4920811;28;37678;-79
2021/08/22 20:32:12;;;;;;;12.98;7.55;;;18.50;99.90;;;;;;4941109;28;39167;-80
2021/08/22 20:48:43;;;;;;;23.50;7.32;;;18.60;99.90;;;;;;4951895;23;20044;-78
2021/08/22 20:53:47;;;;;;;16.48;6.00;;;18.60;99.90;;;;;;5251433;23;20040;-78
2021/08/22 21:04:02;;;;;;;14.10;5.63;;;18.60;99.90;;;;;;5499052;23;20025;-76
2021/08/22 21:06:40;;;;;;;12.73;5.38;;;18.60;99.90;;;;;;4930209;28;37283;-79
2021/08/22 21:09:18;;;;;;;14.63;5.50;;;18.60;99.90;;;;;;4935357;28;38149;-79
2021/08/22 21:12:03;;;;;;;13.10;6.38;;;18.60;99.90;;;;;;4891892;28;35636;-79
2021/08/22 21:15:04;;;;;;;17.88;6.00;;;18.60;99.90;;;;;;4915748;28;47571;-80
2021/08/22 21:17:30;;;;;;;13.27;6.35;;;18.60;99.90;;;;;;4970503;23;48589;-79
2021/08/22 21:19:56;;;;;;;16.73;6.38;;;18.60;99.90;;;;;;4888914;29;36899;-80
2021/08/22 21:25:11;;;;;;;18.30;7.03;;;18.60;99.90;;;;;;5322249;23;21140;-80
2021/08/22 21:28:16;;;;;;;14.85;6.20;;;18.60;99.90;;;;;;4930095;28;37918;-80
2021/08/22 21:33:22;;;;;;;13.95;5.72;;;18.60;99.90;;;;;;5272256;23;20032;-79
2021/08/22 21:35:54;;;;;;;11.85;5.95;;;18.60;99.90;;;;;;4936541;28;37371;-80
2021/08/22 21:38:21;;;;;;;17.05;6.30;;;18.60;99.90;;;;;;4949513;29;39957;-81
2021/08/22 21:40:57;;;;;;;14.40;5.80;;;18.60;99.90;;;;;;4937760;29;38169;-79
2021/08/22 21:43:25;;;;;;;21.67;6.90;;;18.60;99.90;;;;;;4937840;29;36375;-79
2021/08/22 21:45:53;;;;;;;14.70;7.20;;;18.60;99.90;;;;;;5184172;23;39281;-78
2021/08/22 21:48:21;;;;;;;14.82;6.68;;;18.60;99.90;;;;;;4907458;29;37174;-79
2021/08/22 21:50:52;;;;;;;18.08;7.40;;;18.60;99.90;;;;;;4944043;28;38152;-80
2021/08/22 21:55:54;;;;;;;17.58;7.38;;;18.50;99.90;;;;;;5541590;23;20242;-79
2021/08/22 21:58:31;;;;;;;14.95;7.05;;;18.40;99.90;;;;;;4950711;28;38957;-79
2021/08/22 22:01:03;;;;;;;21.67;8.70;;;18.30;99.90;;;;;;4932317;28;38847;-80
2021/08/22 22:03:48;;;;;;;22.08;8.27;;;18.30;99.90;;;;;;4922655;28;50196;-80
2021/08/22 22:11:42;;;;;;;15.60;7.35;;;18.10;99.90;;;;;;5147902;23;19911;-79
2021/08/22 22:14:24;;;;;;;15.98;6.55;;;18.10;99.90;;;;;;4918787;28;37444;-79
2021/08/22 22:16:58;;;;;;;13.25;6.68;;;18.00;99.90;;;;;;4910733;29;38543;-78
2021/08/22 22:19:24;;;;;;;18.55;6.63;;;18.00;99.90;;;;;;4901124;29;39539;-78
2021/08/22 22:21:51;;;;;;;11.77;5.45;;;18.00;99.90;;;;;;4923342;29;38948;-79
2021/08/22 22:24:17;;;;;;;16.13;6.15;;;18.00;99.90;;;;;;4925141;28;38649;-78
2021/08/22 22:26:45;;;;;;;13.10;6.50;;;18.00;99.90;;;;;;4925448;29;38343;-79
2021/08/22 22:29:11;;;;;;;14.23;5.65;;;18.10;99.90;;;;;;4911157;29;39100;-79
2021/08/22 22:31:37;;;;;;;14.82;5.70;;;18.10;99.90;;;;;;4936311;28;38004;-78
2021/08/22 22:34:03;;;;;;;9.13;5.10;;;18.00;99.90;;;;;;4911584;29;36899;-77
2021/08/22 22:36:36;;;;;;;10.77;5.97;;;18.00;99.90;;;;;;4928491;29;39286;-79
2021/08/22 22:39:04;;;;;;;14.15;5.60;;;18.10;99.90;;;;;;4912880;29;37266;-77
2021/08/22 22:41:31;;;;;;;10.45;5.03;;;18.00;99.90;;;;;;4909760;29;38033;-79
2021/08/22 22:43:57;;;;;;;10.73;4.57;;;18.00;99.90;;;;;;4918131;29;39438;-79
2021/08/22 22:46:23;;;;;;;12.45;4.50;;;18.00;99.90;;;;;;4913813;29;39671;-78
2021/08/22 22:48:49;;;;;;;11.35;4.45;;;18.00;99.90;;;;;;4935887;28;39868;-79
2021/08/22 22:51:19;;;;;;;11.00;4.00;;;18.00;99.90;;;;;;4916621;29;38039;-79
2021/08/22 22:53:47;;;;;;;10.48;4.18;;;18.10;99.90;;;;;;4928014;29;38674;-79
2021/08/22 22:56:13;;;;;;;9.13;3.72;;;18.00;99.90;;;;;;4921638;29;39678;-79
2021/08/22 22:58:39;;;;;;;9.75;3.78;;;18.10;99.90;;;;;;4925568;29;38508;-79
2021/08/22 23:01:07;;;;;;;8.77;3.50;;;18.10;99.90;;;;;;4909791;29;38183;-79
2021/08/22 23:03:34;;;;;;;8.70;3.58;;;18.10;99.90;;;;;;4928913;29;39921;-79
2021/08/22 23:06:01;;;;;;;9.05;4.38;;;18.10;99.90;;;;;;4928615;28;38383;-79
2021/08/22 23:08:28;;;;;;;9.77;4.13;;;18.10;99.90;;;;;;4916322;29;47289;-79
2021/08/22 23:10:54;;;;;;;7.00;3.45;;;18.10;99.90;;;;;;4938261;28;37480;-79
2021/08/22 23:13:21;;;;;;;9.20;4.50;;;18.10;99.90;;;;;;4935753;29;36971;-79
2021/08/22 23:15:55;;;;;;;11.48;4.53;;;18.10;99.90;;;;;;4933300;29;38578;-79
2021/08/22 23:18:22;;;;;;;12.18;3.85;;;18.10;99.90;;;;;;4946544;28;38531;-80
2021/08/22 23:20:51;;;;;;;9.75;4.55;;;18.20;99.90;;;;;;4930173;29;37245;-78
2021/08/22 23:23:18;;;;;;;15.43;5.80;;;18.20;99.90;;;;;;4944495;28;37806;-79
2021/08/22 23:25:46;;;;;;;9.77;4.75;;;18.20;99.90;;;;;;4928265;29;39042;-80
2021/08/22 23:28:22;;;;;;;11.00;5.10;;;18.20;99.90;;;;;;4935934;28;37510;-80
2021/08/22 23:30:51;;;;;;;9.30;4.75;;;18.20;99.90;;;;;;4950768;28;39531;-79
2021/08/22 23:33:19;;;;;;;9.35;5.15;;;18.20;99.90;;;;;;4950946;28;38639;-79
2021/08/22 23:35:54;;;;;;;12.45;5.32;;;18.20;99.90;;;;;;4967118;28;38568;-79
2021/08/22 23:38:27;;;;;;;9.55;4.95;;;18.20;99.90;;;;;;4934496;28;36999;-79
2021/08/22 23:40:53;;;;;;;18.75;6.55;;;18.20;99.90;;;;;;4949801;29;39580;-80
2021/08/22 23:43:32;;;;;;;16.42;7.85;;;18.20;99.90;;;;;;4934800;29;36432;-80
2021/08/22 23:46:17;;;;;;;14.63;7.30;;;18.20;99.90;;;;;;4951616;28;39001;-80
2021/08/22 23:48:48;;;;;;;17.80;7.60;;;18.20;99.90;;;;;;4932979;29;48671;-80
2021/08/22 23:51:16;;;;;;;13.15;7.07;;;18.30;99.90;;;;;;4935861;28;35997;-80
2021/08/22 23:53:53;;;;;;;14.32;7.38;;;18.30;99.90;;;;;;4936979;29;37675;-80
2021/08/22 23:56:19;;;;;;;9.43;6.93;;;18.20;99.90;;;;;;4924210;29;38270;-79
2021/08/22 23:58:51;;;;;;;15.68;7.93;;;18.30;99.90;;;;;;4934650;29;38813;-80
